sensor_id;sensor_type;location;lat;lon;timestamp;temperature;humidity
14411;DHT22;7290;50.854;4.354;2023-04-03T00:00:29;6.80;99.90
14411;DHT22;7290;50.854;4.354;2023-04-03T00:02:55;6.90;99.90
14411;DHT22;7290;50.854;4.354;2023-04-03T00:05:22;6.90;99.90
14411;DHT22;7290;50.854;4.354;2023-04-03T00:07:48;6.70;99.90
14411;DHT22;7290;50.854;4.354;2023-04-03T00:10:16;6.90;99.90
14411;DHT22;7290;50.854;4.354;2023-04-03T00:12:42;7.00;99.90
14411;DHT22;7290;50.854;4.354;2023-04-03T00:15:09;7.00;99.90
14411;DHT22;7290;50.854;4.354;2023-04-03T00:17:35;7.00;99.90
14411;DHT22;7290;50.854;4.354;2023-04-03T00:20:01;6.80;99.90
14411;DHT22;7290;50.854;4.354;2023-04-03T00:22:27;6.70;99.90
14411;DHT22;7290;50.854;4.354;2023-04-03T00:24:54;6.70;99.90
14411;DHT22;7290;50.854;4.354;2023-04-03T00:27:21;6.60;99.90
14411;DHT22;7290;50.854;4.354;2023-04-03T00:29:47;6.40;99.90
14411;DHT22;7290;50.854;4.354;2023-04-03T00:32:13;6.40;99.90
14411;DHT22;7290;50.854;4.354;2023-04-03T00:34:39;6.60;99.90
14411;DHT22;7290;50.854;4.354;2023-04-03T00:37:05;6.60;99.90
14411;DHT22;7290;50.854;4.354;2023-04-03T00:39:31;6.60;99.90
14411;DHT22;7290;50.854;4.354;2023-04-03T00:41:57;6.50;99.90
14411;DHT22;7290;50.854;4.354;2023-04-03T00:47:24;6.40;99.90
14411;DHT22;7290;50.854;4.354;2023-04-03T00:49:52;6.40;99.90
14411;DHT22;7290;50.854;4.354;2023-04-03T00:52:22;6.40;99.90
14411;DHT22;7290;50.854;4.354;2023-04-03T00:54:52;6.30;99.90
14411;DHT22;7290;50.854;4.354;2023-04-03T00:57:21;6.20;99.90
14411;DHT22;7290;50.854;4.354;2023-04-03T00:59:50;6.30;99.90
14411;DHT22;7290;50.854;4.354;2023-04-03T01:02:17;6.30;99.90
14411;DHT22;7290;50.854;4.354;2023-04-03T01:04:45;6.30;99.90
14411;DHT22;7290;50.854;4.354;2023-04-03T01:07:14;6.30;99.90
14411;DHT22;7290;50.854;4.354;2023-04-03T01:09:42;6.20;99.90
14411;DHT22;7290;50.854;4.354;2023-04-03T01:12:15;6.30;99.90
14411;DHT22;7290;50.854;4.354;2023-04-03T01:14:42;6.30;99.90
14411;DHT22;7290;50.854;4.354;2023-04-03T01:17:26;6.20;99.90
14411;DHT22;7290;50.854;4.354;2023-04-03T01:20:02;6.20;99.90
14411;DHT22;7290;50.854;4.354;2023-04-03T01:22:39;6.00;99.90
14411;DHT22;7290;50.854;4.354;2023-04-03T01:25:08;5.70;99.90
14411;DHT22;7290;50.854;4.354;2023-04-03T01:27:34;5.90;99.90
14411;DHT22;7290;50.854;4.354;2023-04-03T01:30:01;5.90;99.90
14411;DHT22;7290;50.854;4.354;2023-04-03T01:32:27;6.00;99.90
14411;DHT22;7290;50.854;4.354;2023-04-03T01:34:54;6.10;99.90
14411;DHT22;7290;50.854;4.354;2023-04-03T01:37:20;5.90;99.90
14411;DHT22;7290;50.854;4.354;2023-04-03T01:39:46;5.90;99.90
14411;DHT22;7290;50.854;4.354;2023-04-03T01:42:12;6.00;99.90
14411;DHT22;7290;50.854;4.354;2023-04-03T01:44:38;5.80;99.90
14411;DHT22;7290;50.854;4.354;2023-04-03T01:47:05;5.80;99.90
14411;DHT22;7290;50.854;4.354;2023-04-03T01:49:33;5.70;99.90
14411;DHT22;7290;50.854;4.354;2023-04-03T01:51:59;5.60;99.90
14411;DHT22;7290;50.854;4.354;2023-04-03T01:54:25;5.70;99.90
14411;DHT22;7290;50.854;4.354;2023-04-03T01:56:51;5.50;99.90
14411;DHT22;7290;50.854;4.354;2023-04-03T01:59:17;5.60;99.90
14411;DHT22;7290;50.854;4.354;2023-04-03T02:01:44;5.80;99.90
14411;DHT22;7290;50.854;4.354;2023-04-03T02:04:11;5.90;99.90
14411;DHT22;7290;50.854;4.354;2023-04-03T02:06:38;5.80;99.90
14411;DHT22;7290;50.854;4.354;2023-04-03T02:09:04;6.00;99.90
14411;DHT22;7290;50.854;4.354;2023-04-03T02:11:31;6.10;99.90
14411;DHT22;7290;50.854;4.354;2023-04-03T02:13:57;6.10;99.90
14411;DHT22;7290;50.854;4.354;2023-04-03T02:16:23;6.00;99.90
14411;DHT22;7290;50.854;4.354;2023-04-03T02:18:49;5.90;99.90
14411;DHT22;7290;50.854;4.354;2023-04-03T02:21:16;5.90;99.90
14411;DHT22;7290;50.854;4.354;2023-04-03T02:23:43;5.90;99.90
14411;DHT22;7290;50.854;4.354;2023-04-03T02:26:11;5.90;99.90
14411;DHT22;7290;50.854;4.354;2023-04-03T02:28:38;5.90;99.90
14411;DHT22;7290;50.854;4.354;2023-04-03T02:31:05;5.90;99.90
14411;DHT22;7290;50.854;4.354;2023-04-03T02:33:32;5.90;99.90
14411;DHT22;7290;50.854;4.354;2023-04-03T02:35:59;5.80;99.90
14411;DHT22;7290;50.854;4.354;2023-04-03T02:38:25;5.80;99.90
14411;DHT22;7290;50.854;4.354;2023-04-03T02:40:52;5.70;99.90
14411;DHT22;7290;50.854;4.354;2023-04-03T02:43:18;5.70;99.90
14411;DHT22;7290;50.854;4.354;2023-04-03T02:45:44;5.70;99.90
14411;DHT22;7290;50.854;4.354;2023-04-03T02:48:10;5.70;99.90
14411;DHT22;7290;50.854;4.354;2023-04-03T02:50:37;5.80;99.90
14411;DHT22;7290;50.854;4.354;2023-04-03T02:53:03;5.90;99.90
14411;DHT22;7290;50.854;4.354;2023-04-03T02:55:29;5.60;99.90
14411;DHT22;7290;50.854;4.354;2023-04-03T02:57:56;5.50;99.90
14411;DHT22;7290;50.854;4.354;2023-04-03T03:00:22;5.40;99.90
14411;DHT22;7290;50.854;4.354;2023-04-03T03:02:48;5.50;99.90
14411;DHT22;7290;50.854;4.354;2023-04-03T03:05:15;5.60;99.90
14411;DHT22;7290;50.854;4.354;2023-04-03T03:07:41;5.60;99.90
14411;DHT22;7290;50.854;4.354;2023-04-03T03:10:08;5.60;99.90
14411;DHT22;7290;50.854;4.354;2023-04-03T03:12:34;5.70;99.90
14411;DHT22;7290;50.854;4.354;2023-04-03T03:15:01;5.60;99.90
14411;DHT22;7290;50.854;4.354;2023-04-03T03:17:27;5.70;99.90
14411;DHT22;7290;50.854;4.354;2023-04-03T03:19:53;5.60;99.90
14411;DHT22;7290;50.854;4.354;2023-04-03T03:22:19;5.60;99.90
14411;DHT22;7290;50.854;4.354;2023-04-03T03:24:45;5.60;99.90
14411;DHT22;7290;50.854;4.354;2023-04-03T03:27:12;5.60;99.90
14411;DHT22;7290;50.854;4.354;2023-04-03T03:29:38;5.60;99.90
14411;DHT22;7290;50.854;4.354;2023-04-03T03:32:05;5.60;99.90
14411;DHT22;7290;50.854;4.354;2023-04-03T03:34:31;5.60;99.90
14411;DHT22;7290;50.854;4.354;2023-04-03T03:36:57;5.60;99.90
14411;DHT22;7290;50.854;4.354;2023-04-03T03:39:23;5.60;99.90
14411;DHT22;7290;50.854;4.354;2023-04-03T03:41:49;5.60;99.90
14411;DHT22;7290;50.854;4.354;2023-04-03T03:44:15;5.50;99.90
14411;DHT22;7290;50.854;4.354;2023-04-03T03:46:41;5.50;99.90
14411;DHT22;7290;50.854;4.354;2023-04-03T03:49:08;5.60;99.90
14411;DHT22;7290;50.854;4.354;2023-04-03T03:51:34;5.50;99.90
14411;DHT22;7290;50.854;4.354;2023-04-03T03:54:01;5.50;99.90
14411;DHT22;7290;50.854;4.354;2023-04-03T03:56:27;5.50;99.90
14411;DHT22;7290;50.854;4.354;2023-04-03T03:58:53;5.40;99.90
14411;DHT22;7290;50.854;4.354;2023-04-03T04:01:19;5.40;99.90
14411;DHT22;7290;50.854;4.354;2023-04-03T04:03:45;5.30;99.90
14411;DHT22;7290;50.854;4.354;2023-04-03T04:06:12;5.40;99.90
14411;DHT22;7290;50.854;4.354;2023-04-03T04:08:38;5.40;99.90
14411;DHT22;7290;50.854;4.354;2023-04-03T04:11:05;5.40;99.90
14411;DHT22;7290;50.854;4.354;2023-04-03T04:13:31;5.30;99.90
14411;DHT22;7290;50.854;4.354;2023-04-03T04:15:57;5.30;99.90
14411;DHT22;7290;50.854;4.354;2023-04-03T04:18:23;5.20;99.90
14411;DHT22;7290;50.854;4.354;2023-04-03T04:20:49;5.20;99.90
14411;DHT22;7290;50.854;4.354;2023-04-03T04:23:16;5.10;99.90
14411;DHT22;7290;50.854;4.354;2023-04-03T04:25:44;5.20;99.90
14411;DHT22;7290;50.854;4.354;2023-04-03T04:28:11;5.20;99.90
14411;DHT22;7290;50.854;4.354;2023-04-03T04:30:37;5.20;99.90
14411;DHT22;7290;50.854;4.354;2023-04-03T04:33:03;5.20;99.90
14411;DHT22;7290;50.854;4.354;2023-04-03T04:35:29;5.20;99.90
14411;DHT22;7290;50.854;4.354;2023-04-03T04:37:55;5.20;99.90
14411;DHT22;7290;50.854;4.354;2023-04-03T04:40:22;5.20;99.90
14411;DHT22;7290;50.854;4.354;2023-04-03T04:42:48;5.10;99.90
14411;DHT22;7290;50.854;4.354;2023-04-03T04:45:15;5.00;99.90
14411;DHT22;7290;50.854;4.354;2023-04-03T04:47:41;5.00;99.90
14411;DHT22;7290;50.854;4.354;2023-04-03T04:50:08;5.00;99.90
14411;DHT22;7290;50.854;4.354;2023-04-03T04:52:34;4.90;99.90
14411;DHT22;7290;50.854;4.354;2023-04-03T04:55:00;4.90;99.90
14411;DHT22;7290;50.854;4.354;2023-04-03T04:57:27;4.80;99.90
14411;DHT22;7290;50.854;4.354;2023-04-03T04:59:53;5.00;99.90
14411;DHT22;7290;50.854;4.354;2023-04-03T05:02:19;4.90;99.90
14411;DHT22;7290;50.854;4.354;2023-04-03T05:04:45;4.90;99.90
14411;DHT22;7290;50.854;4.354;2023-04-03T05:07:11;4.90;99.90
14411;DHT22;7290;50.854;4.354;2023-04-03T05:09:37;4.80;99.90
14411;DHT22;7290;50.854;4.354;2023-04-03T05:12:04;4.80;99.90
14411;DHT22;7290;50.854;4.354;2023-04-03T05:14:31;4.80;99.90
14411;DHT22;7290;50.854;4.354;2023-04-03T05:16:57;4.60;99.90
14411;DHT22;7290;50.854;4.354;2023-04-03T05:19:23;4.60;99.90
14411;DHT22;7290;50.854;4.354;2023-04-03T05:21:49;4.70;99.90
14411;DHT22;7290;50.854;4.354;2023-04-03T05:24:16;4.60;99.90
14411;DHT22;7290;50.854;4.354;2023-04-03T05:26:42;4.60;99.90
14411;DHT22;7290;50.854;4.354;2023-04-03T05:29:08;4.70;99.90
14411;DHT22;7290;50.854;4.354;2023-04-03T05:31:35;4.70;99.90
14411;DHT22;7290;50.854;4.354;2023-04-03T05:34:02;4.80;99.90
14411;DHT22;7290;50.854;4.354;2023-04-03T05:36:28;4.90;99.90
14411;DHT22;7290;50.854;4.354;2023-04-03T05:38:54;5.00;99.90
14411;DHT22;7290;50.854;4.354;2023-04-03T05:41:22;4.90;99.90
14411;DHT22;7290;50.854;4.354;2023-04-03T05:43:48;5.00;99.90
14411;DHT22;7290;50.854;4.354;2023-04-03T05:46:16;5.00;99.90
14411;DHT22;7290;50.854;4.354;2023-04-03T05:48:44;5.10;99.90
14411;DHT22;7290;50.854;4.354;2023-04-03T05:51:16;5.10;99.90
14411;DHT22;7290;50.854;4.354;2023-04-03T05:53:43;5.20;99.90
14411;DHT22;7290;50.854;4.354;2023-04-03T05:56:09;5.10;99.90
14411;DHT22;7290;50.854;4.354;2023-04-03T05:58:36;5.20;99.90
14411;DHT22;7290;50.854;4.354;2023-04-03T06:01:02;5.10;99.90
14411;DHT22;7290;50.854;4.354;2023-04-03T06:03:28;5.10;99.90
14411;DHT22;7290;50.854;4.354;2023-04-03T06:05:55;5.20;99.90
14411;DHT22;7290;50.854;4.354;2023-04-03T06:08:21;5.20;99.90
14411;DHT22;7290;50.854;4.354;2023-04-03T06:10:47;5.20;99.90
14411;DHT22;7290;50.854;4.354;2023-04-03T06:13:13;5.30;99.90
14411;DHT22;7290;50.854;4.354;2023-04-03T06:15:40;5.40;99.90
14411;DHT22;7290;50.854;4.354;2023-04-03T06:18:06;5.40;99.90
14411;DHT22;7290;50.854;4.354;2023-04-03T06:20:32;5.50;99.90
14411;DHT22;7290;50.854;4.354;2023-04-03T06:22:59;5.60;99.90
14411;DHT22;7290;50.854;4.354;2023-04-03T06:25:26;5.60;99.90
14411;DHT22;7290;50.854;4.354;2023-04-03T06:27:52;5.50;99.90
14411;DHT22;7290;50.854;4.354;2023-04-03T06:30:21;5.60;99.90
14411;DHT22;7290;50.854;4.354;2023-04-03T06:32:47;5.70;99.90
14411;DHT22;7290;50.854;4.354;2023-04-03T06:35:13;5.70;99.90
14411;DHT22;7290;50.854;4.354;2023-04-03T06:37:40;5.80;99.90
14411;DHT22;7290;50.854;4.354;2023-04-03T06:40:12;5.70;99.90
14411;DHT22;7290;50.854;4.354;2023-04-03T06:42:39;5.60;99.90
14411;DHT22;7290;50.854;4.354;2023-04-03T06:45:06;5.50;99.90
14411;DHT22;7290;50.854;4.354;2023-04-03T06:47:34;5.40;99.90
14411;DHT22;7290;50.854;4.354;2023-04-03T06:50:00;5.40;99.90
14411;DHT22;7290;50.854;4.354;2023-04-03T06:52:26;5.50;99.90
14411;DHT22;7290;50.854;4.354;2023-04-03T06:54:52;5.40;99.90
14411;DHT22;7290;50.854;4.354;2023-04-03T06:57:23;5.30;99.90
14411;DHT22;7290;50.854;4.354;2023-04-03T06:59:49;5.40;99.90
14411;DHT22;7290;50.854;4.354;2023-04-03T07:02:16;5.90;99.90
14411;DHT22;7290;50.854;4.354;2023-04-03T07:04:42;7.30;99.90
14411;DHT22;7290;50.854;4.354;2023-04-03T07:07:08;8.20;99.90
14411;DHT22;7290;50.854;4.354;2023-04-03T07:09:34;7.80;99.90
14411;DHT22;7290;50.854;4.354;2023-04-03T07:12:00;7.30;99.90
14411;DHT22;7290;50.854;4.354;2023-04-03T07:14:27;6.90;99.90
14411;DHT22;7290;50.854;4.354;2023-04-03T07:16:53;5.90;99.90
14411;DHT22;7290;50.854;4.354;2023-04-03T07:19:19;5.60;99.90
14411;DHT22;7290;50.854;4.354;2023-04-03T07:21:45;5.70;99.90
14411;DHT22;7290;50.854;4.354;2023-04-03T07:24:11;5.70;99.90
14411;DHT22;7290;50.854;4.354;2023-04-03T07:26:37;5.90;99.90
14411;DHT22;7290;50.854;4.354;2023-04-03T07:29:03;6.20;99.90
14411;DHT22;7290;50.854;4.354;2023-04-03T07:31:30;6.20;99.90
14411;DHT22;7290;50.854;4.354;2023-04-03T07:33:57;6.20;99.90
14411;DHT22;7290;50.854;4.354;2023-04-03T07:36:23;6.30;99.90
14411;DHT22;7290;50.854;4.354;2023-04-03T07:38:49;6.40;99.90
14411;DHT22;7290;50.854;4.354;2023-04-03T07:41:17;6.40;99.90
14411;DHT22;7290;50.854;4.354;2023-04-03T07:43:45;6.40;99.90
14411;DHT22;7290;50.854;4.354;2023-04-03T07:46:12;6.40;99.90
14411;DHT22;7290;50.854;4.354;2023-04-03T07:48:39;6.20;99.90
14411;DHT22;7290;50.854;4.354;2023-04-03T07:51:06;6.00;99.90
14411;DHT22;7290;50.854;4.354;2023-04-03T07:53:32;6.00;99.90
14411;DHT22;7290;50.854;4.354;2023-04-03T07:55:59;5.80;99.90
14411;DHT22;7290;50.854;4.354;2023-04-03T07:58:25;5.80;99.90
14411;DHT22;7290;50.854;4.354;2023-04-03T08:00:52;6.00;99.90
14411;DHT22;7290;50.854;4.354;2023-04-03T08:03:20;6.00;99.90
14411;DHT22;7290;50.854;4.354;2023-04-03T08:05:49;5.80;99.90
14411;DHT22;7290;50.854;4.354;2023-04-03T08:08:17;5.90;99.90
14411;DHT22;7290;50.854;4.354;2023-04-03T08:10:43;6.20;99.90
14411;DHT22;7290;50.854;4.354;2023-04-03T08:13:09;6.00;99.90
14411;DHT22;7290;50.854;4.354;2023-04-03T08:15:36;5.90;99.90
14411;DHT22;7290;50.854;4.354;2023-04-03T08:18:05;6.10;99.90
14411;DHT22;7290;50.854;4.354;2023-04-03T08:20:31;6.30;99.90
14411;DHT22;7290;50.854;4.354;2023-04-03T08:22:58;6.30;99.90
14411;DHT22;7290;50.854;4.354;2023-04-03T08:25:24;6.50;99.90
14411;DHT22;7290;50.854;4.354;2023-04-03T08:27:50;6.70;99.90
14411;DHT22;7290;50.854;4.354;2023-04-03T08:30:16;6.90;99.90
14411;DHT22;7290;50.854;4.354;2023-04-03T08:32:43;6.70;99.90
14411;DHT22;7290;50.854;4.354;2023-04-03T08:35:10;6.70;99.90
14411;DHT22;7290;50.854;4.354;2023-04-03T08:37:37;6.90;99.90
14411;DHT22;7290;50.854;4.354;2023-04-03T08:40:06;6.90;99.90
14411;DHT22;7290;50.854;4.354;2023-04-03T08:42:41;7.10;99.90
14411;DHT22;7290;50.854;4.354;2023-04-03T08:45:14;7.40;99.90
14411;DHT22;7290;50.854;4.354;2023-04-03T08:47:47;8.00;99.90
14411;DHT22;7290;50.854;4.354;2023-04-03T08:50:16;10.00;99.90
14411;DHT22;7290;50.854;4.354;2023-04-03T08:52:46;11.00;99.90
14411;DHT22;7290;50.854;4.354;2023-04-03T08:55:22;12.30;99.90
14411;DHT22;7290;50.854;4.354;2023-04-03T08:57:52;14.40;99.90
14411;DHT22;7290;50.854;4.354;2023-04-03T09:00:23;16.90;99.50
14411;DHT22;7290;50.854;4.354;2023-04-03T09:02:52;15.40;98.60
14411;DHT22;7290;50.854;4.354;2023-04-03T09:05:20;13.50;99.90
14411;DHT22;7290;50.854;4.354;2023-04-03T09:07:49;14.90;99.90
14411;DHT22;7290;50.854;4.354;2023-04-03T09:10:23;16.00;99.20
14411;DHT22;7290;50.854;4.354;2023-04-03T09:12:53;16.30;97.50
14411;DHT22;7290;50.854;4.354;2023-04-03T09:15:24;16.90;95.60
14411;DHT22;7290;50.854;4.354;2023-04-03T09:17:59;18.50;94.50
14411;DHT22;7290;50.854;4.354;2023-04-03T09:20:36;17.00;95.30
14411;DHT22;7290;50.854;4.354;2023-04-03T09:23:09;19.10;93.50
14411;DHT22;7290;50.854;4.354;2023-04-03T09:25:41;20.80;91.20
14411;DHT22;7290;50.854;4.354;2023-04-03T09:28:07;20.30;91.00
14411;DHT22;7290;50.854;4.354;2023-04-03T09:30:36;20.00;90.10
14411;DHT22;7290;50.854;4.354;2023-04-03T09:33:03;21.20;88.30
14411;DHT22;7290;50.854;4.354;2023-04-03T09:35:31;19.20;88.90
14411;DHT22;7290;50.854;4.354;2023-04-03T09:37:59;18.10;91.10
14411;DHT22;7290;50.854;4.354;2023-04-03T09:40:32;20.00;89.40
14411;DHT22;7290;50.854;4.354;2023-04-03T09:43:02;20.50;87.80
14411;DHT22;7290;50.854;4.354;2023-04-03T09:45:30;18.60;88.70
14411;DHT22;7290;50.854;4.354;2023-04-03T09:48:08;19.00;88.60
14411;DHT22;7290;50.854;4.354;2023-04-03T09:50:36;17.90;89.40
14411;DHT22;7290;50.854;4.354;2023-04-03T09:53:05;15.40;92.10
14411;DHT22;7290;50.854;4.354;2023-04-03T09:55:42;14.90;94.00
14411;DHT22;7290;50.854;4.354;2023-04-03T09:58:24;15.50;94.00
14411;DHT22;7290;50.854;4.354;2023-04-03T10:00:54;17.80;91.30
14411;DHT22;7290;50.854;4.354;2023-04-03T10:03:25;19.60;88.20
14411;DHT22;7290;50.854;4.354;2023-04-03T10:05:52;19.10;87.60
14411;DHT22;7290;50.854;4.354;2023-04-03T10:08:23;21.00;85.30
14411;DHT22;7290;50.854;4.354;2023-04-03T10:11:10;22.00;82.10
14411;DHT22;7290;50.854;4.354;2023-04-03T10:13:49;22.60;79.40
14411;DHT22;7290;50.854;4.354;2023-04-03T10:16:18;23.10;76.70
14411;DHT22;7290;50.854;4.354;2023-04-03T10:18:51;23.30;76.10
14411;DHT22;7290;50.854;4.354;2023-04-03T10:21:29;19.60;77.30
14411;DHT22;7290;50.854;4.354;2023-04-03T10:24:05;18.00;83.40
14411;DHT22;7290;50.854;4.354;2023-04-03T10:26:41;19.40;82.10
14411;DHT22;7290;50.854;4.354;2023-04-03T10:29:20;21.40;78.50
14411;DHT22;7290;50.854;4.354;2023-04-03T10:31:55;22.60;74.80
14411;DHT22;7290;50.854;4.354;2023-04-03T10:34:30;23.00;73.90
14411;DHT22;7290;50.854;4.354;2023-04-03T10:37:04;22.20;71.00
14411;DHT22;7290;50.854;4.354;2023-04-03T10:39:35;20.30;74.90
14411;DHT22;7290;50.854;4.354;2023-04-03T10:42:07;21.10;75.10
14411;DHT22;7290;50.854;4.354;2023-04-03T10:44:42;17.70;78.10
14411;DHT22;7290;50.854;4.354;2023-04-03T10:47:19;15.30;85.70
14411;DHT22;7290;50.854;4.354;2023-04-03T10:49:54;14.80;88.00
14411;DHT22;7290;50.854;4.354;2023-04-03T10:52:25;16.70;84.00
14411;DHT22;7290;50.854;4.354;2023-04-03T10:55:00;18.30;78.90
14411;DHT22;7290;50.854;4.354;2023-04-03T10:57:28;18.70;76.50
14411;DHT22;7290;50.854;4.354;2023-04-03T10:59:58;20.00;75.70
14411;DHT22;7290;50.854;4.354;2023-04-03T11:02:29;20.40;73.80
14411;DHT22;7290;50.854;4.354;2023-04-03T11:05:00;21.30;72.80
14411;DHT22;7290;50.854;4.354;2023-04-03T11:07:29;19.10;74.20
14411;DHT22;7290;50.854;4.354;2023-04-03T11:10:02;17.70;73.60
14411;DHT22;7290;50.854;4.354;2023-04-03T11:12:41;15.90;77.70
14411;DHT22;7290;50.854;4.354;2023-04-03T11:15:14;16.60;76.80
14411;DHT22;7290;50.854;4.354;2023-04-03T11:17:43;18.70;74.90
14411;DHT22;7290;50.854;4.354;2023-04-03T11:20:16;17.10;72.10
14411;DHT22;7290;50.854;4.354;2023-04-03T11:22:46;15.60;77.30
14411;DHT22;7290;50.854;4.354;2023-04-03T11:25:19;15.10;78.10
14411;DHT22;7290;50.854;4.354;2023-04-03T11:27:51;14.80;81.70
14411;DHT22;7290;50.854;4.354;2023-04-03T11:30:22;15.60;82.70
14411;DHT22;7290;50.854;4.354;2023-04-03T11:33:05;16.70;83.00
14411;DHT22;7290;50.854;4.354;2023-04-03T11:35:34;19.30;79.00
14411;DHT22;7290;50.854;4.354;2023-04-03T11:38:03;18.30;75.80
14411;DHT22;7290;50.854;4.354;2023-04-03T11:40:33;19.50;76.90
14411;DHT22;7290;50.854;4.354;2023-04-03T11:43:05;19.40;76.80
14411;DHT22;7290;50.854;4.354;2023-04-03T11:45:37;20.20;74.00
14411;DHT22;7290;50.854;4.354;2023-04-03T11:48:06;21.30;71.50
14411;DHT22;7290;50.854;4.354;2023-04-03T11:50:42;19.40;69.80
14411;DHT22;7290;50.854;4.354;2023-04-03T11:53:33;17.80;72.70
14411;DHT22;7290;50.854;4.354;2023-04-03T11:56:27;18.80;73.00
14411;DHT22;7290;50.854;4.354;2023-04-03T11:59:22;20.30;71.20
14411;DHT22;7290;50.854;4.354;2023-04-03T12:01:50;17.20;72.50
14411;DHT22;7290;50.854;4.354;2023-04-03T12:04:18;16.20;77.00
14411;DHT22;7290;50.854;4.354;2023-04-03T12:09:58;14.40;83.80
14411;DHT22;7290;50.854;4.354;2023-04-03T12:12:38;14.50;84.00
14411;DHT22;7290;50.854;4.354;2023-04-03T12:15:22;15.40;85.80
14411;DHT22;7290;50.854;4.354;2023-04-03T12:17:51;16.90;81.90
14411;DHT22;7290;50.854;4.354;2023-04-03T12:20:54;16.20;80.50
14411;DHT22;7290;50.854;4.354;2023-04-03T12:23:28;14.50;76.50
14411;DHT22;7290;50.854;4.354;2023-04-03T12:26:05;12.80;78.20
14411;DHT22;7290;50.854;4.354;2023-04-03T12:28:37;12.70;78.20
14411;DHT22;7290;50.854;4.354;2023-04-03T12:31:05;12.20;76.90
14411;DHT22;7290;50.854;4.354;2023-04-03T12:33:44;11.80;78.50
14411;DHT22;7290;50.854;4.354;2023-04-03T12:36:17;12.00;79.70
14411;DHT22;7290;50.854;4.354;2023-04-03T12:39:04;12.90;79.20
14411;DHT22;7290;50.854;4.354;2023-04-03T12:41:37;13.10;76.10
14411;DHT22;7290;50.854;4.354;2023-04-03T12:44:45;12.60;77.20
14411;DHT22;7290;50.854;4.354;2023-04-03T12:47:23;11.90;79.20
14411;DHT22;7290;50.854;4.354;2023-04-03T12:49:52;11.70;81.10
14411;DHT22;7290;50.854;4.354;2023-04-03T12:52:26;11.70;80.30
14411;DHT22;7290;50.854;4.354;2023-04-03T12:54:55;11.40;81.40
14411;DHT22;7290;50.854;4.354;2023-04-03T12:57:25;11.30;79.80
14411;DHT22;7290;50.854;4.354;2023-04-03T12:59:53;11.10;80.80
14411;DHT22;7290;50.854;4.354;2023-04-03T13:02:24;11.10;79.80
14411;DHT22;7290;50.854;4.354;2023-04-03T13:04:53;11.30;80.30
14411;DHT22;7290;50.854;4.354;2023-04-03T13:07:24;11.40;80.20
14411;DHT22;7290;50.854;4.354;2023-04-03T13:09:57;11.70;80.60
14411;DHT22;7290;50.854;4.354;2023-04-03T13:12:24;11.90;79.80
14411;DHT22;7290;50.854;4.354;2023-04-03T13:14:56;11.60;79.10
14411;DHT22;7290;50.854;4.354;2023-04-03T13:17:24;11.00;80.30
14411;DHT22;7290;50.854;4.354;2023-04-03T13:19:51;11.10;81.40
14411;DHT22;7290;50.854;4.354;2023-04-03T13:22:28;11.10;77.30
14411;DHT22;7290;50.854;4.354;2023-04-03T13:24:58;11.20;78.00
14411;DHT22;7290;50.854;4.354;2023-04-03T13:27:26;10.90;77.30
14411;DHT22;7290;50.854;4.354;2023-04-03T13:29:54;11.20;78.80
14411;DHT22;7290;50.854;4.354;2023-04-03T13:32:24;11.40;78.00
14411;DHT22;7290;50.854;4.354;2023-04-03T13:34:53;11.10;78.40
14411;DHT22;7290;50.854;4.354;2023-04-03T13:37:21;11.40;78.00
14411;DHT22;7290;50.854;4.354;2023-04-03T13:39:58;11.60;76.00
14411;DHT22;7290;50.854;4.354;2023-04-03T13:42:26;11.40;76.70
14411;DHT22;7290;50.854;4.354;2023-04-03T13:45:16;11.30;76.30
14411;DHT22;7290;50.854;4.354;2023-04-03T13:47:45;11.40;77.30
14411;DHT22;7290;50.854;4.354;2023-04-03T13:50:18;11.70;76.40
14411;DHT22;7290;50.854;4.354;2023-04-03T13:52:48;11.20;77.60
14411;DHT22;7290;50.854;4.354;2023-04-03T13:55:21;11.50;78.90
14411;DHT22;7290;50.854;4.354;2023-04-03T13:57:53;11.00;78.90
14411;DHT22;7290;50.854;4.354;2023-04-03T14:00:29;11.00;79.50
14411;DHT22;7290;50.854;4.354;2023-04-03T14:02:56;11.10;79.50
14411;DHT22;7290;50.854;4.354;2023-04-03T14:05:23;11.00;80.10
14411;DHT22;7290;50.854;4.354;2023-04-03T14:07:50;11.00;80.60
14411;DHT22;7290;50.854;4.354;2023-04-03T14:10:17;11.20;79.30
14411;DHT22;7290;50.854;4.354;2023-04-03T14:12:43;11.20;80.30
14411;DHT22;7290;50.854;4.354;2023-04-03T14:15:17;11.40;79.70
14411;DHT22;7290;50.854;4.354;2023-04-03T14:17:43;11.10;78.00
14411;DHT22;7290;50.854;4.354;2023-04-03T14:20:14;10.90;79.50
14411;DHT22;7290;50.854;4.354;2023-04-03T14:22:42;10.80;79.90
14411;DHT22;7290;50.854;4.354;2023-04-03T14:25:08;11.00;80.50
14411;DHT22;7290;50.854;4.354;2023-04-03T14:27:36;11.20;79.50
14411;DHT22;7290;50.854;4.354;2023-04-03T14:30:08;11.30;78.40
14411;DHT22;7290;50.854;4.354;2023-04-03T14:32:35;11.30;79.40
14411;DHT22;7290;50.854;4.354;2023-04-03T14:35:01;11.50;79.60
14411;DHT22;7290;50.854;4.354;2023-04-03T14:37:29;11.90;79.90
14411;DHT22;7290;50.854;4.354;2023-04-03T14:39:58;12.30;79.60
14411;DHT22;7290;50.854;4.354;2023-04-03T14:42:28;12.60;78.20
14411;DHT22;7290;50.854;4.354;2023-04-03T14:44:55;11.80;78.00
14411;DHT22;7290;50.854;4.354;2023-04-03T14:47:24;11.70;77.90
14411;DHT22;7290;50.854;4.354;2023-04-03T14:49:52;11.60;78.20
14411;DHT22;7290;50.854;4.354;2023-04-03T14:52:20;11.60;78.90
14411;DHT22;7290;50.854;4.354;2023-04-03T14:54:47;12.00;79.10
14411;DHT22;7290;50.854;4.354;2023-04-03T14:57:15;11.80;79.20
14411;DHT22;7290;50.854;4.354;2023-04-03T14:59:42;11.70;79.00
14411;DHT22;7290;50.854;4.354;2023-04-03T15:02:25;11.70;80.00
14411;DHT22;7290;50.854;4.354;2023-04-03T15:04:51;12.20;80.10
14411;DHT22;7290;50.854;4.354;2023-04-03T15:07:17;12.30;79.10
14411;DHT22;7290;50.854;4.354;2023-04-03T15:09:44;12.10;79.70
14411;DHT22;7290;50.854;4.354;2023-04-03T15:12:10;12.10;80.20
14411;DHT22;7290;50.854;4.354;2023-04-03T15:14:37;11.80;79.40
14411;DHT22;7290;50.854;4.354;2023-04-03T15:17:04;11.80;78.70
14411;DHT22;7290;50.854;4.354;2023-04-03T15:19:31;11.50;78.60
14411;DHT22;7290;50.854;4.354;2023-04-03T15:22:01;11.40;78.80
14411;DHT22;7290;50.854;4.354;2023-04-03T15:24:27;11.90;79.60
14411;DHT22;7290;50.854;4.354;2023-04-03T15:26:54;12.00;78.30
14411;DHT22;7290;50.854;4.354;2023-04-03T15:29:20;11.90;78.00
14411;DHT22;7290;50.854;4.354;2023-04-03T15:31:47;11.40;78.30
14411;DHT22;7290;50.854;4.354;2023-04-03T15:34:15;11.70;78.60
14411;DHT22;7290;50.854;4.354;2023-04-03T15:36:41;11.70;77.80
14411;DHT22;7290;50.854;4.354;2023-04-03T15:39:07;11.90;77.70
14411;DHT22;7290;50.854;4.354;2023-04-03T15:41:33;11.20;77.40
14411;DHT22;7290;50.854;4.354;2023-04-03T15:44:00;11.30;77.90
14411;DHT22;7290;50.854;4.354;2023-04-03T15:46:26;11.60;77.80
14411;DHT22;7290;50.854;4.354;2023-04-03T15:48:53;11.70;78.20
14411;DHT22;7290;50.854;4.354;2023-04-03T15:51:19;11.60;77.60
14411;DHT22;7290;50.854;4.354;2023-04-03T15:53:45;11.70;77.70
14411;DHT22;7290;50.854;4.354;2023-04-03T15:56:11;11.70;76.80
14411;DHT22;7290;50.854;4.354;2023-04-03T15:58:37;11.90;78.10
14411;DHT22;7290;50.854;4.354;2023-04-03T16:01:04;12.30;77.40
14411;DHT22;7290;50.854;4.354;2023-04-03T16:03:31;12.00;77.90
14411;DHT22;7290;50.854;4.354;2023-04-03T16:05:58;11.80;79.00
14411;DHT22;7290;50.854;4.354;2023-04-03T16:08:24;11.70;79.80
14411;DHT22;7290;50.854;4.354;2023-04-03T16:10:50;11.80;79.70